sensor_id;sensor_type;location;lat;lon;timestamp;temperature;humidity
31687;DHT22;18285;51.330;4.946;2023-04-25T00:01:22;22.60;35.60
31687;DHT22;18285;51.330;4.946;2023-04-25T00:25:33;22.50;35.60
31687;DHT22;18285;51.330;4.946;2023-04-25T00:49:44;22.60;35.80
31687;DHT22;18285;51.330;4.946;2023-04-25T01:13:54;22.60;35.80
31687;DHT22;18285;51.330;4.946;2023-04-25T01:38:05;22.60;35.80
31687;DHT22;18285;51.330;4.946;2023-04-25T02:02:16;22.50;35.70
31687;DHT22;18285;51.330;4.946;2023-04-25T02:26:26;22.60;35.80
31687;DHT22;18285;51.330;4.946;2023-04-25T02:50:37;22.60;35.80
31687;DHT22;18285;51.330;4.946;2023-04-25T03:14:48;22.60;36.00
31687;DHT22;18285;51.330;4.946;2023-04-25T03:38:59;22.60;36.00
31687;DHT22;18285;51.330;4.946;2023-04-25T04:03:09;22.60;36.20
31687;DHT22;18285;51.330;4.946;2023-04-25T04:27:21;22.60;36.10
31687;DHT22;18285;51.330;4.946;2023-04-25T04:51:32;22.60;36.10
31687;DHT22;18285;51.330;4.946;2023-04-25T05:15:44;22.60;36.50
31687;DHT22;18285;51.330;4.946;2023-04-25T05:39:55;22.60;36.30
31687;DHT22;18285;51.330;4.946;2023-04-25T06:04:05;22.60;37.70
31687;DHT22;18285;51.330;4.946;2023-04-25T06:28:16;22.70;36.10
31687;DHT22;18285;51.330;4.946;2023-04-25T06:52:27;22.70;35.90
31687;DHT22;18285;51.330;4.946;2023-04-25T07:16:37;22.60;35.70
31687;DHT22;18285;51.330;4.946;2023-04-25T07:40:49;22.50;36.50
31687;DHT22;18285;51.330;4.946;2023-04-25T08:05:00;22.60;36.20
31687;DHT22;18285;51.330;4.946;2023-04-25T08:54:37;22.70;35.40
31687;DHT22;18285;51.330;4.946;2023-04-25T09:18:54;22.80;34.50
31687;DHT22;18285;51.330;4.946;2023-04-25T09:43:18;22.80;34.00
31687;DHT22;18285;51.330;4.946;2023-04-25T10:07:30;22.50;35.30
31687;DHT22;18285;51.330;4.946;2023-04-25T10:31:45;22.90;33.60
31687;DHT22;18285;51.330;4.946;2023-04-25T10:55:55;22.70;34.10
31687;DHT22;18285;51.330;4.946;2023-04-25T11:20:07;23.00;31.20
31687;DHT22;18285;51.330;4.946;2023-04-25T11:44:22;22.70;33.30
31687;DHT22;18285;51.330;4.946;2023-04-25T12:08:32;22.60;31.00
31687;DHT22;18285;51.330;4.946;2023-04-25T12:32:43;22.50;32.30
31687;DHT22;18285;51.330;4.946;2023-04-25T12:56:54;22.70;31.50
31687;DHT22;18285;51.330;4.946;2023-04-25T13:21:05;22.80;30.50
31687;DHT22;18285;51.330;4.946;2023-04-25T13:45:16;22.90;30.60
31687;DHT22;18285;51.330;4.946;2023-04-25T14:09:27;22.80;30.80
31687;DHT22;18285;51.330;4.946;2023-04-25T14:33:38;22.70;30.90
31687;DHT22;18285;51.330;4.946;2023-04-25T14:57:53;23.00;30.20
31687;DHT22;18285;51.330;4.946;2023-04-25T15:22:04;23.10;31.20
31687;DHT22;18285;51.330;4.946;2023-04-25T15:46:17;23.00;27.40
31687;DHT22;18285;51.330;4.946;2023-04-25T16:10:27;22.10;27.70
31687;DHT22;18285;51.330;4.946;2023-04-25T16:34:38;21.90;28.30
31687;DHT22;18285;51.330;4.946;2023-04-25T16:58:49;22.00;27.60
31687;DHT22;18285;51.330;4.946;2023-04-25T17:23:00;21.70;27.70
31687;DHT22;18285;51.330;4.946;2023-04-25T17:47:11;22.00;28.60
31687;DHT22;18285;51.330;4.946;2023-04-25T18:11:22;22.10;29.10
31687;DHT22;18285;51.330;4.946;2023-04-25T18:35:33;22.40;29.20
31687;DHT22;18285;51.330;4.946;2023-04-25T18:59:44;22.60;30.90
31687;DHT22;18285;51.330;4.946;2023-04-25T19:23:56;22.80;28.80
31687;DHT22;18285;51.330;4.946;2023-04-25T19:48:06;22.60;31.20
31687;DHT22;18285;51.330;4.946;2023-04-25T20:12:19;22.60;30.70
31687;DHT22;18285;51.330;4.946;2023-04-25T20:36:39;22.70;31.30
31687;DHT22;18285;51.330;4.946;2023-04-25T21:00:50;22.80;31.70
31687;DHT22;18285;51.330;4.946;2023-04-25T21:25:01;22.80;31.70
31687;DHT22;18285;51.330;4.946;2023-04-25T21:49:15;22.80;31.70
31687;DHT22;18285;51.330;4.946;2023-04-25T22:13:26;22.80;31.90
31687;DHT22;18285;51.330;4.946;2023-04-25T22:37:38;22.80;31.70
31687;DHT22;18285;51.330;4.946;2023-04-25T23:01:50;22.80;31.70
31687;DHT22;18285;51.330;4.946;2023-04-25T23:26:06;22.80;31.50
31687;DHT22;18285;51.330;4.946;2023-04-25T23:50:17;22.80;31.60
